Time;durP1;ratioP1;P1;durP2;ratioP2;P2;SDS_P1;SDS_P2;PMS_P1;PMS_P2;Temp;Humidity;BMP_temperature;BMP_pressure;BME280_temperature;BME280_humidity;BME280_pressure;Samples;Min_cycle;Max_cycle;Signal;HPM_P1;HPM_P2
2022/03/22 00:00:12;;;;;;;19.33;13.53;;;;;;;10.49;37.05;98812.16;5110549;28;20628;-72
2022/03/22 00:02:37;;;;;;;23.83;15.93;;;;;;;10.45;36.76;98814.16;5119805;28;20173;-69
2022/03/22 00:05:03;;;;;;;22.90;15.30;;;;;;;10.40;36.84;98812.84;5125213;28;20200;-69
2022/03/22 00:07:30;;;;;;;25.40;14.90;;;;;;;10.33;36.75;98816.81;5123072;27;20180;-69
2022/03/22 00:09:56;;;;;;;21.17;15.40;;;;;;;10.33;37.12;98808.97;5125640;27;20485;-71
2022/03/22 00:12:21;;;;;;;24.90;16.00;;;;;;;10.29;37.49;98813.56;5110728;28;20422;-71
2022/03/22 00:14:47;;;;;;;23.40;14.57;;;;;;;10.25;37.09;98810.34;5122516;28;20650;-73
2022/03/22 00:17:12;;;;;;;20.97;14.90;;;;;;;10.27;37.30;98808.44;5115252;28;20200;-70
2022/03/22 00:19:38;;;;;;;20.13;14.63;;;;;;;10.29;37.30;98801.31;5122024;27;20199;-70
2022/03/22 00:22:04;;;;;;;20.17;14.97;;;;;;;10.25;36.76;98810.34;5122861;28;20433;-70
2022/03/22 00:24:29;;;;;;;22.20;15.63;;;;;;;10.23;36.56;98798.31;5113565;27;20181;-74
2022/03/22 00:26:55;;;;;;;21.63;14.97;;;;;;;10.13;36.64;98798.13;5104848;28;20238;-71
2022/03/22 00:29:21;;;;;;;25.23;15.80;;;;;;;10.11;36.56;98806.09;5116034;28;20197;-69
2022/03/22 00:31:46;;;;;;;23.20;15.27;;;;;;;10.07;36.94;98803.81;5123755;28;20253;-69
2022/03/22 00:34:13;;;;;;;21.33;14.67;;;;;;;10.03;37.24;98799.75;5114125;28;20173;-73
2022/03/22 00:36:42;;;;;;;27.80;16.03;;;;;;;10.06;37.45;98810.00;5122462;28;20265;-71
2022/03/22 00:39:07;;;;;;;21.07;14.30;;;;;;;10.02;37.42;98803.31;5115467;27;20480;-71
2022/03/22 00:41:33;;;;;;;21.47;14.97;;;;;;;9.96;37.22;98800.16;5127896;27;20525;-70
2022/03/22 00:43:59;;;;;;;18.50;14.10;;;;;;;9.97;37.76;98806.25;5112012;28;20231;-71
2022/03/22 00:46:24;;;;;;;20.27;14.33;;;;;;;9.92;37.40;98803.97;5126848;28;20195;-70
2022/03/22 00:48:50;;;;;;;25.80;14.50;;;;;;;9.89;37.25;98804.19;5109652;28;20205;-72
2022/03/22 00:51:15;;;;;;;27.13;15.93;;;;;;;9.84;37.71;98801.88;5130368;27;20682;-70
2022/03/22 00:53:41;;;;;;;21.47;14.90;;;;;;;9.79;37.36;98803.16;5134165;27;20207;-71
2022/03/22 00:56:08;;;;;;;21.00;13.70;;;;;;;9.80;37.71;98797.81;5127024;27;20177;-73
2022/03/22 00:58:34;;;;;;;21.37;14.73;;;;;;;9.76;37.44;98793.75;5126078;27;20314;-73
2022/03/22 01:01:00;;;;;;;24.17;15.73;;;;;;;9.79;37.63;98800.53;5151745;27;20441;-71
2022/03/22 01:03:28;;;;;;;18.60;12.90;;;;;;;9.75;37.96;98792.06;5133136;27;20429;-72
2022/03/22 01:05:55;;;;;;;21.83;15.17;;;;;;;9.74;38.33;98794.78;5122827;27;20413;-72
2022/03/22 01:08:22;;;;;;;27.63;15.53;;;;;;;9.64;38.24;98794.59;5125455;27;20431;-72
2022/03/22 01:10:52;;;;;;;22.93;14.50;;;;;;;9.53;37.47;98788.31;5113824;28;20957;-72
2022/03/22 01:13:30;;;;;;;22.63;14.10;;;;;;;9.54;38.04;98791.78;5122101;27;20486;-70
2022/03/22 01:15:57;;;;;;;22.30;15.30;;;;;;;9.53;38.07;98790.13;5122657;27;20418;-69
2022/03/22 01:18:24;;;;;;;20.37;14.20;;;;;;;9.53;37.62;98785.69;5123815;27;20425;-71
2022/03/22 01:20:49;;;;;;;18.97;14.00;;;;;;;9.49;38.12;98789.50;5117167;27;20822;-69
2022/03/22 01:23:15;;;;;;;25.17;14.40;;;;;;;9.47;37.72;98778.28;5133413;27;20493;-70
2022/03/22 01:25:43;;;;;;;19.77;14.50;;;;;;;9.46;38.05;98781.00;5113999;27;20542;-72
2022/03/22 01:28:11;;;;;;;21.87;14.47;;;;;;;9.42;37.56;98782.16;5121900;27;20829;-73
2022/03/22 01:30:37;;;;;;;18.43;13.23;;;;;;;9.35;38.41;98772.13;5129342;27;20470;-70
2022/03/22 01:33:03;;;;;;;21.10;15.30;;;;;;;9.41;38.55;98777.88;5127456;27;20462;-70
2022/03/22 01:35:29;;;;;;;21.93;14.60;;;;;;;9.35;38.29;98774.72;5125776;27;20413;-69
2022/03/22 01:37:55;;;;;;;24.77;15.33;;;;;;;9.34;38.53;98775.66;5125734;27;20434;-71
2022/03/22 01:40:23;;;;;;;21.83;13.73;;;;;;;9.29;38.36;98769.94;5117013;27;20193;-70
2022/03/22 01:42:49;;;;;;;25.80;15.47;;;;;;;9.28;37.86;98762.16;5125560;27;20425;-70
2022/03/22 01:45:16;;;;;;;20.97;14.93;;;;;;;9.24;38.58;98755.50;5125013;27;20887;-69
2022/03/22 01:47:42;;;;;;;22.00;15.50;;;;;;;9.20;38.88;98765.31;5113611;28;20781;-71
2022/03/22 01:50:10;;;;;;;22.83;16.00;;;;;;;9.12;38.91;98767.63;5121172;27;20876;-70
2022/03/22 01:52:43;;;;;;;29.50;14.80;;;;;;;9.09;38.65;98763.44;5121650;27;20430;-71
2022/03/22 01:55:10;;;;;;;19.87;13.70;;;;;;;9.03;39.20;98759.47;5121800;27;20428;-71
2022/03/22 01:57:36;;;;;;;26.73;16.37;;;;;;;9.00;38.66;98762.28;5128837;27;20435;-71
2022/03/22 02:00:11;;;;;;;21.70;15.30;;;;;;;8.98;39.04;98764.16;5126495;27;20434;-70
2022/03/22 02:08:08;;;;;;;23.33;15.13;;;;;;;9.06;38.84;98759.28;5132320;27;20409;-70
2022/03/22 02:10:34;;;;;;;24.33;14.83;;;;;;;9.07;39.13;98755.69;5124398;27;20458;-71
2022/03/22 02:13:00;;;;;;;32.07;15.27;;;;;;;9.08;38.53;98753.94;5133545;27;20410;-70
2022/03/22 02:15:26;;;;;;;22.70;14.70;;;;;;;9.00;38.83;98751.00;5116376;27;20513;-73
2022/03/22 02:17:51;;;;;;;20.90;15.47;;;;;;;9.00;38.92;98756.25;5119712;27;20513;-71
2022/03/22 02:20:18;;;;;;;22.20;15.00;;;;;;;8.94;39.37;98747.03;5108024;27;20192;-70
2022/03/22 02:22:58;;;;;;;23.90;15.90;;;;;;;8.86;39.05;98747.56;5116795;27;20236;-71
2022/03/22 02:25:24;;;;;;;26.93;16.27;;;;;;;8.83;38.80;98749.50;5131894;27;20630;-70
2022/03/22 02:27:54;;;;;;;21.03;15.20;;;;;;;8.82;39.45;98750.47;5125714;27;20628;-70
2022/03/22 02:30:20;;;;;;;24.13;15.30;;;;;;;8.79;39.59;98750.69;5115630;27;20573;-69
2022/03/22 02:32:53;;;;;;;23.80;14.70;;;;;;;8.73;39.58;98755.38;5114223;27;20475;-69
2022/03/22 02:35:20;;;;;;;20.83;14.50;;;;;;;8.64;39.80;98753.38;5120516;27;20418;-68
2022/03/22 02:37:46;;;;;;;21.13;15.50;;;;;;;8.63;40.08;98754.31;5114054;27;20483;-71
2022/03/22 02:40:13;;;;;;;20.43;13.77;;;;;;;8.68;39.56;98761.84;5120042;27;20549;-72
2022/03/22 02:42:42;;;;;;;23.60;15.80;;;;;;;8.59;39.86;98756.31;5115364;27;20453;-71
2022/03/22 02:45:09;;;;;;;22.67;15.33;;;;;;;8.60;40.22;98751.91;5123998;27;21153;-71
2022/03/22 02:47:34;;;;;;;22.20;14.90;;;;;;;8.62;40.20;98757.03;5127825;27;20474;-71
2022/03/22 02:50:00;;;;;;;20.60;14.73;;;;;;;8.63;39.76;98753.50;5125997;27;20465;-72
2022/03/22 02:52:25;;;;;;;28.33;14.20;;;;;;;8.68;40.13;98754.84;5125114;27;20233;-70
2022/03/22 02:54:51;;;;;;;26.60;15.53;;;;;;;8.73;39.68;98757.16;5122932;27;20176;-70
2022/03/22 02:57:17;;;;;;;23.93;15.30;;;;;;;8.68;39.82;98757.47;5117566;27;20180;-71
2022/03/22 02:59:42;;;;;;;20.77;15.23;;;;;;;8.64;39.54;98756.00;5118770;27;20430;-71
2022/03/22 03:02:08;;;;;;;25.00;16.07;;;;;;;8.60;40.03;98762.34;5119494;27;20180;-70
2022/03/22 03:04:33;;;;;;;22.13;15.90;;;;;;;8.53;39.85;98750.63;5122627;27;20663;-69
2022/03/22 03:06:59;;;;;;;21.10;15.00;;;;;;;8.54;39.77;98754.94;5126536;27;20180;-69
2022/03/22 03:09:24;;;;;;;21.70;15.03;;;;;;;8.53;39.37;98754.06;5120200;27;20205;-70
2022/03/22 03:11:50;;;;;;;20.93;14.80;;;;;;;8.52;39.24;98757.63;5116799;27;20341;-73
2022/03/22 03:16:59;;;;;;;26.53;16.30;;;;;;;8.45;40.54;98761.56;5125319;27;20210;-68
2022/03/22 03:19:25;;;;;;;23.70;15.20;;;;;;;8.45;40.01;98762.38;5120121;27;20603;-69
2022/03/22 03:21:50;;;;;;;21.67;14.40;;;;;;;8.39;40.54;98757.56;5125025;27;20206;-70
2022/03/22 03:24:16;;;;;;;20.60;14.20;;;;;;;8.39;40.79;98759.34;5115504;27;20186;-71
2022/03/22 03:26:41;;;;;;;23.17;14.07;;;;;;;8.37;39.88;98763.84;5112026;28;20176;-71
2022/03/22 03:29:09;;;;;;;21.53;15.20;;;;;;;8.34;40.27;98758.81;5119030;27;20209;-72
2022/03/22 03:31:34;;;;;;;23.80;15.30;;;;;;;8.38;40.75;98755.91;5114086;28;20560;-73
2022/03/22 03:34:00;;;;;;;19.43;14.90;;;;;;;8.40;40.10;98767.09;5117268;27;20423;-69
2022/03/22 03:36:25;;;;;;;22.07;14.73;;;;;;;8.33;40.24;98765.81;5112132;27;20212;-71
2022/03/22 03:38:51;;;;;;;25.97;16.20;;;;;;;8.32;40.27;98766.72;5121926;28;20192;-72
2022/03/22 03:47:03;;;;;;;22.13;15.00;;;;;;;8.30;40.59;98773.84;5125841;28;20177;-72
2022/03/22 03:47:05;;;;;;;20.00;14.47;;;;;;;8.22;40.51;98776.09;5124726;28;20422;-72
2022/03/22 03:49:37;;;;;;;18.00;13.67;;;;;;;8.21;40.67;98771.81;5113821;28;20466;-72
2022/03/22 03:52:05;;;;;;;18.70;14.00;;;;;;;8.23;40.93;98769.94;5122946;27;20511;-71
2022/03/22 03:54:30;;;;;;;20.63;14.30;;;;;;;8.24;40.78;98766.41;5115352;27;20423;-71
2022/03/22 03:56:56;;;;;;;22.57;14.90;;;;;;;8.21;40.15;98769.22;5113450;27;20941;-71
2022/03/22 03:59:21;;;;;;;21.87;15.30;;;;;;;8.11;41.03;98772.41;5129672;28;20180;-71
2022/03/22 04:01:47;;;;;;;29.50;14.57;;;;;;;8.13;41.02;98769.69;5123868;28;20208;-72
2022/03/22 04:04:12;;;;;;;19.90;13.60;;;;;;;8.10;41.33;98768.13;5123957;28;20599;-72
2022/03/22 04:06:38;;;;;;;23.33;14.77;;;;;;;8.09;41.11;98768.25;5123516;28;20263;-69
2022/03/22 04:09:03;;;;;;;21.83;14.87;;;;;;;8.14;41.25;98771.38;5128977;28;20235;-71
2022/03/22 04:11:29;;;;;;;26.90;15.20;;;;;;;8.12;41.20;98768.06;5124754;28;20204;-70
2022/03/22 04:13:54;;;;;;;21.30;15.57;;;;;;;8.13;41.00;98765.34;5102074;28;20188;-71
2022/03/22 04:16:20;;;;;;;22.23;15.10;;;;;;;8.18;40.65;98761.59;5110737;28;20191;-70
2022/03/22 04:18:45;;;;;;;20.60;15.10;;;;;;;8.19;41.00;98773.72;5120764;28;20267;-69
2022/03/22 04:21:11;;;;;;;26.10;15.50;;;;;;;8.18;41.22;98774.66;5110829;28;20714;-70
2022/03/22 04:23:37;;;;;;;20.30;14.50;;;;;;;8.09;40.61;98766.44;5108973;28;20185;-70
2022/03/22 04:26:03;;;;;;;27.17;15.90;;;;;;;8.13;40.57;98764.47;5111422;28;20523;-71
2022/03/22 04:33:58;;;;;;;19.40;14.63;;;;;;;7.95;41.17;98771.72;5115487;28;20467;-70
2022/03/22 04:36:24;;;;;;;25.00;16.63;;;;;;;7.96;41.13;98770.78;5115994;28;20414;-70
2022/03/22 04:38:49;;;;;;;24.20;15.17;;;;;;;7.92;41.98;98769.31;5112729;28;20657;-70
2022/03/22 04:41:15;;;;;;;21.80;14.67;;;;;;;7.90;41.22;98784.25;5115181;28;20204;-70
2022/03/22 04:43:41;;;;;;;28.03;15.57;;;;;;;7.89;41.75;98772.13;5124208;27;20214;-69
2022/03/22 04:46:07;;;;;;;22.80;15.43;;;;;;;7.86;41.64;98781.00;5107065;27;20193;-71
2022/03/22 04:48:33;;;;;;;24.23;16.30;;;;;;;7.84;42.02;98786.28;5115664;27;20181;-70
2022/03/22 04:56:46;;;;;;;25.57;16.07;;;;;;;7.71;42.02;98780.16;5119201;27;20505;-69
2022/03/22 04:59:24;;;;;;;29.00;17.17;;;;;;;7.71;42.53;98785.38;5111614;28;20431;-70
2022/03/22 05:01:51;;;;;;;30.13;14.80;;;;;;;7.61;42.32;98786.88;5108742;28;20437;-71
2022/03/22 05:04:17;;;;;;;26.37;15.93;;;;;;;7.63;42.71;98788.44;5120082;27;20462;-70
2022/03/22 05:06:42;;;;;;;26.20;15.90;;;;;;;7.69;41.80;98797.69;5113387;27;20842;-71
2022/03/22 05:09:08;;;;;;;26.77;16.30;;;;;;;7.67;42.15;98803.00;5127737;27;20204;-70
2022/03/22 05:11:34;;;;;;;27.03;16.20;;;;;;;7.67;42.49;98804.78;5123546;27;20203;-69
2022/03/22 05:14:00;;;;;;;28.60;17.13;;;;;;;7.64;42.44;98795.34;5122098;27;20710;-71
2022/03/22 05:16:26;;;;;;;24.73;16.10;;;;;;;7.63;42.22;98803.28;5126266;27;20785;-71
2022/03/22 05:18:52;;;;;;;30.13;17.50;;;;;;;7.58;42.07;98806.19;5120915;27;20427;-73
2022/03/22 05:21:19;;;;;;;25.70;16.47;;;;;;;7.51;42.53;98804.88;5112994;27;20217;-71
2022/03/22 05:23:45;;;;;;;23.70;15.07;;;;;;;7.53;42.56;98811.69;5113551;28;20513;-71
2022/03/22 05:26:12;;;;;;;23.37;15.30;;;;;;;7.57;42.76;98814.94;5112930;28;20434;-71
2022/03/22 05:28:37;;;;;;;25.90;16.77;;;;;;;7.59;42.35;98814.84;5133340;27;20421;-71
2022/03/22 05:31:08;;;;;;;26.50;16.07;;;;;;;7.60;42.37;98813.91;5134141;27;20430;-70
2022/03/22 05:33:33;;;;;;;25.07;16.00;;;;;;;7.62;42.28;98819.88;5134175;27;20535;-69
2022/03/22 05:36:00;;;;;;;35.33;16.70;;;;;;;7.62;42.31;98822.50;5121895;27;20517;-69
2022/03/22 05:38:25;;;;;;;27.73;17.00;;;;;;;7.62;42.11;98823.34;5130753;27;20223;-70
2022/03/22 05:40:52;;;;;;;28.63;16.77;;;;;;;7.62;42.35;98827.72;5120335;27;20470;-71
2022/03/22 05:43:17;;;;;;;30.70;16.93;;;;;;;7.64;42.83;98823.25;5115090;27;20180;-70
2022/03/22 05:45:48;;;;;;;24.63;17.53;;;;;;;7.69;42.37;98829.00;5128074;27;20785;-69
2022/03/22 05:48:17;;;;;;;28.20;17.37;;;;;;;7.72;41.83;98834.03;5134038;27;20179;-70
2022/03/22 05:50:43;;;;;;;25.97;17.40;;;;;;;7.82;42.63;98829.91;5117190;27;20489;-71
2022/03/22 05:53:10;;;;;;;29.77;19.30;;;;;;;8.01;42.32;98828.78;5115806;27;20840;-70
2022/03/22 05:55:36;;;;;;;30.73;18.37;;;;;;;8.22;41.35;98820.50;5111461;27;20225;-70
2022/03/22 05:58:02;;;;;;;30.37;19.23;;;;;;;8.25;41.19;98831.59;5119087;27;20418;-69
2022/03/22 06:00:28;;;;;;;43.17;19.20;;;;;;;8.31;41.20;98833.00;5123181;27;20473;-70
2022/03/22 06:02:53;;;;;;;25.90;19.07;;;;;;;8.40;41.53;98829.81;5126393;27;20413;-70
2022/03/22 06:05:19;;;;;;;29.30;17.47;;;;;;;8.42;40.93;98820.09;5133343;27;20181;-69
2022/03/22 06:07:44;;;;;;;35.27;17.00;;;;;;;8.48;40.86;98815.41;5133469;27;20173;-70
2022/03/22 06:10:12;;;;;;;31.90;18.47;;;;;;;8.45;40.96;98821.66;5119738;27;20208;-70
2022/03/22 06:12:41;;;;;;;29.37;16.90;;;;;;;8.41;41.46;98820.19;5132546;27;20644;-70
2022/03/22 06:15:20;;;;;;;34.07;17.37;;;;;;;8.56;40.96;98818.41;5126194;27;20426;-72
2022/03/22 06:17:46;;;;;;;26.60;16.30;;;;;;;8.82;40.61;98803.59;5099558;28;20436;-69
2022/03/22 06:20:11;;;;;;;26.90;17.00;;;;;;;8.91;40.53;98807.38;5108543;27;20491;-68
2022/03/22 06:22:37;;;;;;;27.03;17.67;;;;;;;8.95;40.75;98808.00;5104084;28;20922;-69
2022/03/22 06:25:03;;;;;;;29.33;18.17;;;;;;;8.98;41.35;98808.63;5110776;27;20173;-69
2022/03/22 06:27:29;;;;;;;31.83;19.80;;;;;;;9.28;41.26;98812.75;5114474;27;20227;-71
2022/03/22 06:29:54;;;;;;;40.83;27.90;;;;;;;9.50;40.39;98816.50;5131420;27;20461;-69
2022/03/22 06:32:20;;;;;;;43.73;27.90;;;;;;;9.64;40.25;98816.38;5115826;27;20181;-70
2022/03/22 06:34:47;;;;;;;31.63;19.97;;;;;;;9.85;39.94;98818.41;5124053;27;20179;-69
2022/03/22 06:37:13;;;;;;;28.80;18.57;;;;;;;9.99;39.44;98815.66;5115946;27;20176;-71
2022/03/22 06:39:39;;;;;;;23.63;17.07;;;;;;;9.99;38.91;98814.84;5119930;27;20427;-69
2022/03/22 06:42:05;;;;;;;27.33;18.30;;;;;;;9.98;38.64;98816.59;5112420;28;20431;-70
2022/03/22 06:44:31;;;;;;;26.73;18.67;;;;;;;10.15;38.57;98820.63;5129023;27;20271;-70
2022/03/22 06:46:56;;;;;;;28.80;17.47;;;;;;;10.25;37.85;98815.59;5120547;27;20802;-70
2022/03/22 06:49:23;;;;;;;25.70;16.93;;;;;;;10.54;38.06;98811.81;5128459;27;20461;-70
2022/03/22 06:51:49;;;;;;;33.47;18.20;;;;;;;10.64;38.11;98815.44;5109824;27;20215;-70
2022/03/22 06:54:14;;;;;;;26.53;17.53;;;;;;;10.80;38.16;98819.53;5117870;27;20439;-70
2022/03/22 06:56:40;;;;;;;35.47;20.13;;;;;;;11.11;37.52;98807.56;5111941;28;20173;-70
2022/03/22 06:59:05;;;;;;;30.97;17.90;;;;;;;11.30;37.17;98806.19;5126999;27;20172;-70
2022/03/22 07:01:32;;;;;;;27.73;17.87;;;;;;;11.38;36.92;98801.16;5113206;27;20212;-68
2022/03/22 07:04:00;;;;;;;27.20;16.77;;;;;;;11.62;35.74;98803.69;5118344;27;20263;-69
2022/03/22 07:06:26;;;;;;;30.10;18.43;;;;;;;11.69;35.54;98809.31;5111650;28;20961;-69
2022/03/22 07:08:53;;;;;;;32.90;19.63;;;;;;;11.78;35.34;98816.44;5120092;27;20195;-71
2022/03/22 07:14:03;;;;;;;43.77;18.43;;;;;;;12.22;35.03;98820.97;5120356;27;20500;-71
2022/03/22 07:16:28;;;;;;;27.53;18.97;;;;;;;12.42;34.09;98814.91;5121854;27;20443;-70
2022/03/22 07:18:54;;;;;;;24.70;17.57;;;;;;;12.59;34.31;98815.34;5126669;27;20181;-70
2022/03/22 07:21:19;;;;;;;28.53;16.83;;;;;;;12.75;33.63;98825.44;5128509;27;20204;-72
2022/03/22 07:23:45;;;;;;;28.70;18.30;;;;;;;12.82;33.82;98829.22;5121530;27;20184;-69
2022/03/22 07:26:11;;;;;;;25.13;17.80;;;;;;;12.89;33.72;98829.53;5120083;27;20181;-69
2022/03/22 07:28:36;;;;;;;28.93;18.63;;;;;;;12.92;33.14;98818.78;5127829;27;20181;-70
2022/03/22 07:31:02;;;;;;;25.70;18.43;;;;;;;13.14;33.43;98816.97;5119848;27;20208;-70
2022/03/22 07:33:28;;;;;;;26.50;17.87;;;;;;;13.26;32.92;98817.75;5129890;27;20311;-71
2022/03/22 07:35:54;;;;;;;29.57;20.30;;;;;;;13.43;33.17;98822.41;5123313;27;20648;-71
2022/03/22 07:38:19;;;;;;;31.83;19.70;;;;;;;13.48;32.69;98819.41;5122721;27;20204;-70
2022/03/22 07:40:45;;;;;;;33.90;19.10;;;;;;;13.59;32.53;98819.31;5119242;27;20195;-70
2022/03/22 07:43:10;;;;;;;37.47;18.30;;;;;;;13.77;31.54;98816.03;5119822;28;20185;-70
2022/03/22 07:45:37;;;;;;;37.77;19.23;;;;;;;13.81;31.46;98828.81;5119871;28;20193;-71
2022/03/22 07:48:04;;;;;;;25.07;17.97;;;;;;;13.83;31.17;98820.81;5118367;28;20180;-70
2022/03/22 07:53:14;;;;;;;27.23;18.63;;;;;;;13.78;30.58;98831.75;5115032;28;20887;-70
2022/03/22 07:55:42;;;;;;;27.80;17.23;;;;;;;13.86;30.55;98825.78;5117280;28;20565;-70
2022/03/22 07:58:09;;;;;;;31.27;18.20;;;;;;;13.83;30.46;98832.16;5130768;28;20180;-69
2022/03/22 08:00:38;;;;;;;26.30;17.63;;;;;;;13.73;30.97;98831.28;5119699;27;20594;-69
2022/03/22 08:03:05;;;;;;;26.13;18.27;;;;;;;13.93;31.08;98832.19;5121646;27;20421;-69
2022/03/22 08:05:31;;;;;;;30.23;19.60;;;;;;;14.12;30.46;98826.16;5125029;27;20527;-69
2022/03/22 08:07:57;;;;;;;30.43;17.73;;;;;;;14.22;30.88;98826.19;5123741;27;20442;-69
2022/03/22 08:10:23;;;;;;;29.70;18.97;;;;;;;14.41;30.74;98829.78;5131590;27;20572;-69
2022/03/22 08:12:49;;;;;;;28.03;18.33;;;;;;;14.51;30.66;98830.63;5126799;27;20176;-71
2022/03/22 08:15:15;;;;;;;31.17;18.33;;;;;;;14.67;30.09;98826.63;5127169;27;20642;-71
2022/03/22 08:17:42;;;;;;;38.20;18.60;;;;;;;14.91;30.69;98836.78;5131164;27;20509;-71
2022/03/22 08:20:09;;;;;;;38.33;18.57;;;;;;;15.22;30.56;98833.94;5127450;27;20434;-71
2022/03/22 08:22:52;;;;;;;49.93;19.03;;;;;;;15.55;30.29;98833.59;5124969;27;20425;-70
2022/03/22 08:25:28;;;;;;;31.97;18.20;;;;;;;15.75;28.72;98821.94;5127479;27;20913;-70
2022/03/22 08:27:55;;;;;;;29.63;18.33;;;;;;;16.08;28.95;98825.03;5136932;27;20434;-70
2022/03/22 08:30:21;;;;;;;62.93;18.27;;;;;;;16.07;28.26;98830.44;5125523;27;20975;-70
2022/03/22 08:32:51;;;;;;;33.97;19.17;;;;;;;16.28;28.52;98830.19;5126388;27;20417;-71
2022/03/22 08:35:17;;;;;;;36.20;19.10;;;;;;;16.45;27.19;98831.19;5135401;27;20414;-71
2022/03/22 08:37:43;;;;;;;38.83;18.13;;;;;;;16.77;27.87;98827.19;5117117;27;20820;-70
2022/03/22 08:40:10;;;;;;;36.73;17.80;;;;;;;17.01;27.43;98820.47;5126490;27;20445;-70
2022/03/22 08:42:37;;;;;;;32.57;19.10;;;;;;;17.25;27.35;98817.16;5131659;27;20641;-70
2022/03/22 08:45:06;;;;;;;37.90;17.23;;;;;;;17.49;27.09;98818.28;5121489;27;20501;-71
2022/03/22 08:47:34;;;;;;;27.33;18.70;;;;;;;17.59;26.29;98823.44;5115714;27;20518;-70
2022/03/22 08:50:00;;;;;;;26.60;18.60;;;;;;;17.74;26.25;98821.06;5128960;27;20476;-70
2022/03/22 08:52:25;;;;;;;32.03;18.77;;;;;;;17.82;26.37;98823.75;5125513;27;20505;-72
2022/03/22 08:54:51;;;;;;;28.50;18.30;;;;;;;18.09;25.71;98816.56;5114640;27;20169;-70
2022/03/22 08:57:17;;;;;;;27.63;18.40;;;;;;;17.96;26.49;98815.19;5131114;27;20690;-70
2022/03/22 08:59:43;;;;;;;27.90;18.50;;;;;;;18.24;25.54;98811.47;5125786;27;20735;-70
2022/03/22 09:02:09;;;;;;;32.33;16.30;;;;;;;18.50;26.62;98815.81;5126264;27;20422;-70
2022/03/22 09:07:19;;;;;;;31.53;17.80;;;;;;;18.94;24.35;98809.38;5122153;27;20426;-71
2022/03/22 09:09:44;;;;;;;26.03;17.23;;;;;;;19.11;24.84;98808.38;5122047;27;20454;-71
2022/03/22 09:12:12;;;;;;;26.40;18.10;;;;;;;19.13;24.11;98802.91;5119170;27;20177;-70
2022/03/22 09:14:38;;;;;;;28.80;18.77;;;;;;;19.32;24.23;98810.50;5124217;27;20203;-70
2022/03/22 09:17:05;;;;;;;24.50;18.23;;;;;;;19.50;23.94;98809.44;5126507;27;20834;-70
2022/03/22 09:19:33;;;;;;;27.83;17.53;;;;;;;19.68;23.60;98822.53;5125712;27;20426;-69
2022/03/22 09:22:00;;;;;;;24.53;17.73;;;;;;;19.51;23.71;98818.28;5134513;27;20453;-70
2022/03/22 09:24:25;;;;;;;22.07;17.53;;;;;;;19.65;23.19;98820.22;5124245;27;20755;-71
2022/03/22 09:26:51;;;;;;;26.97;16.90;;;;;;;19.69;22.91;98815.41;5121891;27;20518;-71
2022/03/22 09:29:16;;;;;;;29.10;17.10;;;;;;;20.11;22.69;98808.91;5115806;27;20244;-70
2022/03/22 09:31:42;;;;;;;28.33;17.63;;;;;;;20.16;21.90;98803.88;5118613;27;20208;-69
2022/03/22 09:34:08;;;;;;;30.33;18.47;;;;;;;20.40;22.44;98805.59;5121813;27;20181;-71
2022/03/22 09:36:34;;;;;;;23.83;16.80;;;;;;;20.84;22.77;98801.44;5130320;27;20188;-70
2022/03/22 09:38:59;;;;;;;22.70;17.30;;;;;;;21.16;22.71;98801.34;5125321;27;20440;-70
2022/03/22 09:41:27;;;;;;;26.23;17.47;;;;;;;21.25;21.61;98799.38;5123633;27;21123;-70
2022/03/22 09:43:53;;;;;;;21.07;16.10;;;;;;;21.29;21.69;98806.88;5116054;27;20260;-69
2022/03/22 09:46:19;;;;;;;23.50;16.03;;;;;;;21.38;21.47;98798.75;5130192;27;20433;-68
2022/03/22 09:48:46;;;;;;;19.03;16.10;;;;;;;21.26;20.64;98796.56;5121192;27;20445;-71
2022/03/22 09:53:56;;;;;;;24.60;16.47;;;;;;;21.73;20.80;98799.06;5121502;27;20469;-70
2022/03/22 09:56:25;;;;;;;22.00;17.03;;;;;;;21.76;20.70;98801.34;5121937;27;20985;-70
2022/03/22 09:58:51;;;;;;;22.97;17.23;;;;;;;21.92;20.94;98801.16;5128547;27;20230;-70
2022/03/22 10:01:17;;;;;;;23.23;16.50;;;;;;;21.91;20.09;98794.16;5120814;27;20442;-70
2022/03/22 10:03:42;;;;;;;37.63;18.37;;;;;;;21.84;21.17;98798.56;5113376;28;20833;-69
2022/03/22 10:06:09;;;;;;;28.03;16.97;;;;;;;22.07;20.53;98784.25;5121073;27;20188;-70
2022/03/22 10:08:37;;;;;;;28.80;17.33;;;;;;;21.90;20.19;98786.34;5124627;27;20184;-70
2022/03/22 10:11:03;;;;;;;20.53;17.03;;;;;;;21.99;21.03;98785.19;5119035;27;20465;-69
2022/03/22 10:13:29;;;;;;;23.23;17.43;;;;;;;22.24;21.37;98788.38;5131461;27;20795;-70
2022/03/22 10:16:03;;;;;;;22.77;17.50;;;;;;;22.68;21.09;98783.88;5126811;27;20262;-70
2022/03/22 10:18:28;;;;;;;20.53;15.80;;;;;;;23.05;20.84;98778.41;5122614;27;20422;-70
2022/03/22 10:21:00;;;;;;;21.07;15.73;;;;;;;23.36;20.68;98774.53;5120039;27;20450;-70
2022/03/22 10:23:26;;;;;;;27.23;17.70;;;;;;;23.39;19.33;98778.63;5110561;28;20185;-70
2022/03/22 10:26:04;;;;;;;24.17;17.07;;;;;;;23.38;19.89;98766.28;5108288;27;20438;-70
2022/03/22 10:28:30;;;;;;;23.90;16.13;;;;;;;23.51;18.88;98771.69;5114401;27;20614;-70
2022/03/22 10:30:57;;;;;;;23.43;16.40;;;;;;;23.51;19.11;98779.72;5118279;27;20511;-69
2022/03/22 10:33:22;;;;;;;21.97;16.80;;;;;;;23.62;19.49;98773.00;5119561;27;20522;-69
2022/03/22 10:35:48;;;;;;;22.40;16.70;;;;;;;24.01;19.34;98773.38;5116532;27;20861;-70
2022/03/22 10:38:15;;;;;;;25.07;16.10;;;;;;;24.17;19.01;98769.53;5115406;27;20680;-70
2022/03/22 10:40:44;;;;;;;27.37;17.53;;;;;;;23.91;18.66;98771.88;5118802;27;20737;-69
2022/03/22 10:43:15;;;;;;;25.40;17.13;;;;;;;23.94;18.46;98770.69;5113676;27;20434;-70
2022/03/22 10:46:00;;;;;;;19.83;15.57;;;;;;;24.23;19.17;98774.06;5122089;27;20433;-70
2022/03/22 10:48:28;;;;;;;21.47;17.97;;;;;;;24.29;17.94;98767.91;5120904;27;20429;-70
2022/03/22 10:50:55;;;;;;;22.60;16.57;;;;;;;24.47;19.09;98763.78;5122585;27;20494;-69
2022/03/22 10:53:22;;;;;;;25.37;15.93;;;;;;;24.68;18.85;98763.63;5123026;27;20425;-71
2022/03/22 10:55:48;;;;;;;25.30;17.43;;;;;;;24.85;18.13;98765.88;5116511;27;20431;-70
2022/03/22 10:58:17;;;;;;;20.97;17.20;;;;;;;24.74;17.98;98763.84;5120174;27;20509;-70
2022/03/22 11:00:44;;;;;;;22.23;16.13;;;;;;;24.94;18.13;98764.66;5114923;27;20482;-71
2022/03/22 11:03:11;;;;;;;23.70;16.07;;;;;;;25.18;18.91;98764.19;5114925;27;20793;-69
2022/03/22 11:05:40;;;;;;;23.63;15.87;;;;;;;24.97;17.25;98758.88;5120954;27;20970;-70
2022/03/22 11:08:05;;;;;;;20.60;17.13;;;;;;;24.77;17.32;98756.19;5127104;27;20418;-70
2022/03/22 11:10:31;;;;;;;20.03;16.73;;;;;;;24.65;17.80;98750.63;5128013;27;21032;-68
2022/03/22 11:12:58;;;;;;;19.57;17.23;;;;;;;24.30;17.69;98753.47;5118673;27;20192;-70
2022/03/22 11:15:24;;;;;;;30.13;16.60;;;;;;;24.28;17.76;98760.91;5121193;27;20184;-70
2022/03/22 11:17:51;;;;;;;21.77;17.00;;;;;;;24.21;18.04;98755.53;5130604;27;20779;-70
2022/03/22 11:20:17;;;;;;;24.90;17.00;;;;;;;24.21;18.07;98754.69;5114928;27;20538;-70
2022/03/22 11:22:51;;;;;;;21.20;15.07;;;;;;;24.36;17.63;98754.53;5131042;27;20430;-70
2022/03/22 11:25:22;;;;;;;23.53;15.77;;;;;;;24.39;17.43;98746.91;5114790;27;20423;-70
2022/03/22 11:27:58;;;;;;;18.83;15.80;;;;;;;24.61;17.20;98748.56;5123335;27;20467;-69
2022/03/22 11:30:26;;;;;;;21.40;16.83;;;;;;;24.71;18.00;98748.16;5113480;27;20469;-69
2022/03/22 11:35:52;;;;;;;21.13;15.20;;;;;;;25.14;17.50;98745.03;5122220;27;20526;-69
2022/03/22 11:38:39;;;;;;;19.83;16.70;;;;;;;25.35;17.49;98737.75;5128088;27;20514;-68
2022/03/22 11:43:48;;;;;;;25.20;16.10;;;;;;;25.47;17.99;98741.44;5108850;28;20926;-71
2022/03/22 11:46:15;;;;;;;23.20;17.00;;;;;;;25.53;16.77;98732.56;5115162;28;20430;-69
2022/03/22 11:48:40;;;;;;;22.20;17.13;;;;;;;25.70;16.77;98740.94;5122482;28;20184;-70
2022/03/22 11:51:09;;;;;;;23.30;17.80;;;;;;;25.72;16.98;98738.88;5101351;28;21036;-70
2022/03/22 11:53:44;;;;;;;23.03;18.40;;;;;;;25.56;17.48;98740.19;5113324;28;20236;-70
2022/03/22 11:56:10;;;;;;;20.90;17.13;;;;;;;25.43;16.79;98735.69;5106961;28;20425;-70
2022/03/22 11:58:36;;;;;;;28.03;17.97;;;;;;;25.33;16.70;98740.66;5126218;28;20466;-70